createdAt,value
2023-05-11T00:00:40.123Z,83.46
2023-05-11T00:03:06.886Z,83.07
2023-05-11T00:05:33.646Z,82.74
2023-05-11T00:08:00.307Z,82.82
2023-05-11T00:10:28.528Z,82.29
2023-05-11T00:12:55.546Z,81.75
2023-05-11T00:15:22.120Z,81.66
2023-05-11T00:17:48.706Z,82.75
2023-05-11T00:20:15.380Z,82.84
2023-05-11T00:22:44.056Z,83.23
2023-05-11T00:25:11.445Z,83.02
2023-05-11T00:27:37.979Z,82.95
2023-05-11T00:30:05.014Z,83.30
2023-05-11T00:32:31.661Z,82.95
2023-05-11T00:34:58.443Z,82.73
2023-05-11T00:37:26.078Z,82.88
2023-05-11T00:39:52.892Z,83.27
2023-05-11T00:42:19.457Z,83.26
2023-05-11T00:44:46.019Z,83.12
2023-05-11T00:47:12.701Z,83.40
2023-05-11T00:49:39.994Z,83.45
2023-05-11T00:52:06.746Z,84.34
2023-05-11T00:54:33.387Z,84.11
2023-05-11T00:56:59.984Z,84.35
2023-05-11T00:59:27.455Z,84.62
2023-05-11T01:01:54.250Z,84.21
2023-05-11T01:04:21.001Z,84.42
2023-05-11T01:07:06.011Z,84.10
2023-05-11T01:09:47.926Z,84.66
2023-05-11T01:12:25.926Z,84.42
2023-05-11T01:15:06.430Z,84.13
2023-05-11T01:18:01.427Z,84.81
2023-05-11T01:20:30.414Z,84.69
2023-05-11T01:23:32.438Z,84.47
2023-05-11T01:26:36.503Z,84.53
2023-05-11T01:29:31.130Z,84.54
2023-05-11T01:32:00.005Z,84.51
2023-05-11T01:34:32.064Z,84.74
2023-05-11T01:37:00.821Z,85.01
2023-05-11T01:39:42.746Z,84.64
2023-05-11T01:42:10.791Z,84.91
2023-05-11T01:44:43.551Z,85.25
2023-05-11T01:47:12.069Z,84.54
2023-05-11T01:49:40.733Z,85.06
2023-05-11T01:52:09.938Z,84.63
2023-05-11T01:54:38.672Z,84.93
2023-05-11T01:57:06.535Z,84.54
2023-05-11T01:59:34.154Z,85.08
2023-05-11T02:02:02.259Z,85.00
2023-05-11T02:04:30.218Z,84.47
2023-05-11T02:06:59.046Z,84.37
2023-05-11T02:09:26.718Z,85.18
2023-05-11T02:11:56.220Z,84.96
2023-05-11T02:14:24.718Z,84.39
2023-05-11T02:16:52.851Z,84.00
2023-05-11T02:19:21.113Z,84.25
2023-05-11T02:21:49.817Z,84.29
2023-05-11T02:24:18.230Z,83.48
2023-05-11T02:26:44.809Z,83.58
2023-05-11T02:29:11.653Z,83.62
2023-05-11T02:31:44.323Z,83.67
2023-05-11T02:34:21.129Z,84.13
2023-05-11T02:36:54.518Z,83.63
2023-05-11T02:39:22.061Z,83.67
2023-05-11T02:41:57.080Z,83.80
2023-05-11T02:44:31.591Z,83.92
2023-05-11T02:47:02.549Z,83.96
2023-05-11T02:49:31.890Z,84.17
2023-05-11T02:52:01.522Z,84.40
2023-05-11T02:54:29.397Z,84.54
2023-05-11T02:56:57.431Z,84.82
2023-05-11T02:59:25.223Z,85.24
2023-05-11T03:01:52.843Z,84.85
2023-05-11T03:04:19.677Z,84.29
2023-05-11T03:06:46.366Z,84.40
2023-05-11T03:09:13.145Z,85.24
2023-05-11T03:11:40.711Z,84.88
2023-05-11T03:14:07.621Z,84.21
2023-05-11T03:16:35.032Z,84.53
2023-05-11T03:19:02.700Z,84.85
2023-05-11T03:21:29.481Z,84.04
2023-05-11T03:23:57.123Z,84.73
2023-05-11T03:26:27.386Z,85.26
2023-05-11T03:28:55.654Z,84.82
2023-05-11T03:31:22.471Z,84.59
2023-05-11T03:33:49.160Z,84.32
2023-05-11T03:36:16.021Z,84.94
2023-05-11T03:38:45.197Z,83.88
2023-05-11T03:41:15.869Z,84.37
2023-05-11T03:43:45.203Z,84.62
2023-05-11T03:46:12.364Z,84.25
2023-05-11T03:48:40.580Z,84.71
2023-05-11T03:51:07.443Z,84.62
2023-05-11T03:53:34.164Z,84.36
2023-05-11T03:56:01.754Z,84.21
2023-05-11T03:58:28.784Z,83.76
2023-05-11T04:00:55.496Z,83.49
2023-05-11T04:03:22.233Z,83.79
2023-05-11T04:05:48.980Z,84.00
2023-05-11T04:08:15.676Z,83.32
2023-05-11T04:10:42.251Z,83.06
2023-05-11T04:13:08.828Z,83.67
2023-05-11T04:15:37.440Z,83.85
2023-05-11T04:18:04.192Z,82.99
2023-05-11T04:20:30.788Z,83.18
2023-05-11T04:22:57.352Z,83.30
2023-05-11T04:25:23.911Z,83.19
2023-05-11T04:27:50.407Z,83.48
2023-05-11T04:30:17.414Z,82.77
2023-05-11T04:32:44.339Z,83.25
2023-05-11T04:35:10.940Z,82.94
2023-05-11T04:37:37.618Z,83.05
2023-05-11T04:40:04.578Z,82.39
2023-05-11T04:42:31.436Z,82.97
2023-05-11T04:44:57.964Z,81.95
2023-05-11T04:47:24.467Z,81.95
2023-05-11T04:49:51.994Z,82.08
2023-05-11T04:52:18.643Z,83.33
2023-05-11T04:54:45.265Z,82.29
2023-05-11T04:57:11.787Z,80.82
2023-05-11T04:59:38.379Z,78.81
2023-05-11T05:02:05.028Z,77.48
2023-05-11T05:04:32.559Z,76.37
2023-05-11T05:07:00.931Z,74.76
2023-05-11T05:09:27.486Z,74.63
2023-05-11T05:11:54.321Z,74.30
2023-05-11T05:14:20.888Z,74.02
2023-05-11T05:16:47.494Z,71.55
2023-05-11T05:19:14.114Z,71.65
2023-05-11T05:21:41.207Z,73.45
2023-05-11T05:24:11.235Z,73.58
2023-05-11T05:26:37.948Z,73.48
2023-05-11T05:29:05.687Z,74.26
2023-05-11T05:31:32.477Z,74.27
2023-05-11T05:33:59.304Z,75.05
2023-05-11T05:36:26.044Z,74.67
2023-05-11T05:38:52.630Z,75.87
2023-05-11T05:41:19.336Z,77.19
2023-05-11T05:43:46.128Z,77.76
2023-05-11T05:46:12.795Z,77.41
2023-05-11T05:48:39.343Z,77.53
2023-05-11T05:51:05.967Z,76.88
2023-05-11T05:53:32.730Z,78.09
2023-05-11T05:55:59.475Z,77.62
2023-05-11T05:58:26.031Z,78.65
2023-05-11T06:00:52.787Z,79.06
2023-05-11T06:03:19.513Z,75.85
2023-05-11T06:05:46.162Z,76.36
2023-05-11T06:08:12.779Z,77.36
2023-05-11T06:10:39.512Z,76.73
2023-05-11T06:13:08.160Z,77.07
2023-05-11T06:15:34.883Z,77.04
2023-05-11T06:18:01.470Z,75.34
2023-05-11T06:20:28.058Z,75.75
2023-05-11T06:22:54.989Z,76.26
2023-05-11T06:25:21.692Z,76.12
2023-05-11T06:27:48.303Z,76.51
2023-05-11T06:30:14.969Z,76.61
2023-05-11T06:32:41.486Z,76.15
2023-05-11T06:35:08.445Z,77.24
2023-05-11T06:37:35.583Z,76.89
2023-05-11T06:40:02.133Z,76.75
2023-05-11T06:42:28.783Z,77.04
2023-05-11T06:44:55.542Z,76.85
2023-05-11T06:47:22.265Z,77.26
2023-05-11T06:49:49.023Z,77.00
2023-05-11T06:52:15.630Z,74.68
2023-05-11T06:54:42.236Z,75.05
2023-05-11T06:57:08.788Z,74.99
2023-05-11T06:59:35.336Z,74.91
2023-05-11T07:02:01.901Z,76.55
2023-05-11T07:04:29.866Z,74.49
2023-05-11T07:06:56.591Z,73.94
2023-05-11T07:09:23.102Z,72.42
2023-05-11T07:11:51.143Z,73.28
2023-05-11T07:14:17.794Z,72.35
2023-05-11T07:16:44.680Z,70.15
2023-05-11T07:19:11.287Z,70.83
2023-05-11T07:21:37.959Z,72.36
2023-05-11T07:24:04.786Z,71.15
2023-05-11T07:26:31.465Z,70.35
2023-05-11T07:28:58.037Z,68.66
2023-05-11T07:31:24.629Z,68.41
2023-05-11T07:33:51.330Z,68.27
2023-05-11T07:36:18.437Z,69.39
2023-05-11T07:38:44.946Z,69.40
2023-05-11T07:41:12.620Z,66.86
2023-05-11T07:43:39.407Z,66.08
2023-05-11T07:46:06.347Z,65.36
2023-05-11T07:48:32.933Z,66.35
2023-05-11T07:51:00.167Z,66.71
2023-05-11T07:53:26.768Z,67.46
2023-05-11T07:55:53.294Z,67.34
2023-05-11T07:58:19.877Z,67.09
2023-05-11T08:00:46.424Z,67.98
2023-05-11T08:03:13.278Z,67.43
2023-05-11T08:05:39.963Z,68.10
2023-05-11T08:08:06.589Z,67.49
2023-05-11T08:10:33.158Z,68.13
2023-05-11T08:12:59.705Z,67.23
2023-05-11T08:15:26.415Z,66.81
2023-05-11T08:17:53.410Z,66.62
2023-05-11T08:20:20.092Z,66.51
2023-05-11T08:22:47.003Z,66.27
2023-05-11T08:25:13.861Z,67.06
2023-05-11T08:27:40.571Z,66.40
2023-05-11T08:30:11.330Z,66.53
2023-05-11T08:32:54.566Z,67.31
2023-05-11T08:35:25.029Z,66.83
2023-05-11T08:37:51.657Z,67.29
2023-05-11T08:40:20.316Z,67.85
2023-05-11T08:42:49.550Z,67.81
2023-05-11T08:45:18.034Z,66.96
2023-05-11T08:47:45.624Z,67.42
2023-05-11T08:50:12.702Z,65.20
2023-05-11T08:52:40.661Z,65.12
2023-05-11T08:55:08.511Z,65.32
2023-05-11T08:57:35.992Z,63.91
2023-05-11T09:00:04.554Z,61.81
2023-05-11T09:02:31.861Z,63.17
2023-05-11T09:05:00.057Z,62.25
2023-05-11T09:07:28.435Z,62.39
2023-05-11T09:09:55.027Z,62.84
2023-05-11T09:12:26.048Z,62.80
2023-05-11T09:14:52.935Z,61.58
2023-05-11T09:17:19.518Z,62.09
2023-05-11T09:20:07.724Z,61.80
2023-05-11T09:22:40.612Z,61.18
2023-05-11T09:25:07.735Z,60.96
2023-05-11T09:27:34.621Z,61.39
2023-05-11T09:30:23.222Z,60.87
2023-05-11T09:33:01.169Z,60.57
2023-05-11T09:35:29.164Z,60.08
2023-05-11T09:38:12.702Z,59.70
2023-05-11T09:40:43.504Z,59.94
2023-05-11T09:43:20.207Z,60.15
2023-05-11T09:45:48.760Z,61.05
2023-05-11T09:48:21.367Z,60.66
2023-05-11T09:50:48.985Z,60.77
2023-05-11T09:53:15.960Z,60.03
2023-05-11T09:55:53.564Z,59.77
2023-05-11T09:58:20.099Z,59.75
2023-05-11T10:00:56.486Z,59.77
2023-05-11T10:03:25.627Z,59.94
2023-05-11T10:06:00.519Z,58.24
2023-05-11T10:08:34.391Z,59.43
2023-05-11T10:11:02.887Z,59.24
2023-05-11T10:13:32.145Z,58.98
2023-05-11T10:16:00.450Z,58.83
2023-05-11T10:18:27.287Z,58.20
2023-05-11T10:20:54.886Z,59.36
2023-05-11T10:23:21.852Z,59.59
2023-05-11T10:25:49.076Z,59.46
2023-05-11T10:28:16.214Z,59.21
2023-05-11T10:30:43.248Z,59.03
2023-05-11T10:33:11.016Z,58.41
2023-05-11T10:35:38.857Z,58.26
2023-05-11T10:38:06.714Z,58.79
2023-05-11T10:40:43.085Z,57.85
2023-05-11T10:43:42.517Z,57.32
2023-05-11T10:46:35.029Z,56.30
2023-05-11T10:49:52.149Z,55.72
2023-05-11T10:52:48.524Z,56.05
2023-05-11T10:55:34.509Z,56.00
2023-05-11T10:58:10.739Z,55.90
2023-05-11T11:01:18.532Z,55.02
2023-05-11T11:03:57.851Z,54.35
2023-05-11T11:06:24.721Z,53.99
2023-05-11T11:09:03.430Z,53.44
2023-05-11T11:11:33.422Z,53.45
2023-05-11T11:14:03.753Z,52.66
2023-05-11T11:16:30.991Z,52.77
2023-05-11T11:19:31.529Z,51.33
2023-05-11T11:22:01.299Z,51.08
2023-05-11T11:24:46.899Z,50.81
2023-05-11T11:27:14.648Z,50.90
2023-05-11T11:29:41.522Z,51.50
2023-05-11T11:32:20.362Z,51.90
2023-05-11T11:34:47.968Z,51.55
2023-05-11T11:37:17.938Z,50.85
2023-05-11T11:39:44.825Z,51.45
2023-05-11T11:42:19.188Z,51.16
2023-05-11T11:44:46.886Z,51.36
2023-05-11T11:47:23.237Z,49.98
2023-05-11T11:49:53.303Z,50.15
2023-05-11T11:52:29.080Z,49.99
2023-05-11T11:54:57.149Z,48.44
2023-05-11T11:57:32.700Z,49.75
2023-05-11T12:00:05.787Z,50.39
2023-05-11T12:02:33.543Z,50.50
2023-05-11T12:05:04.861Z,51.51
2023-05-11T12:07:33.643Z,51.21
2023-05-11T12:10:04.163Z,50.59
2023-05-11T12:12:31.306Z,49.91
2023-05-11T12:14:59.929Z,49.90
2023-05-11T12:17:29.542Z,50.88
2023-05-11T12:20:12.453Z,49.04
2023-05-11T12:22:39.177Z,50.05
2023-05-11T12:25:06.953Z,50.93
2023-05-11T12:27:33.974Z,51.14
2023-05-11T12:30:00.546Z,51.92
2023-05-11T12:32:29.014Z,52.87
2023-05-11T12:35:04.228Z,52.23
2023-05-11T12:37:31.528Z,51.80
2023-05-11T12:39:59.293Z,51.29
2023-05-11T12:42:26.733Z,51.75
2023-05-11T12:44:54.400Z,52.14
2023-05-11T12:47:21.158Z,51.74
2023-05-11T12:49:47.781Z,51.89
2023-05-11T12:52:14.340Z,51.38
2023-05-11T12:54:48.051Z,51.78
2023-05-11T12:57:31.608Z,51.37
2023-05-11T13:00:16.804Z,51.06
2023-05-11T13:02:54.736Z,51.37
2023-05-11T13:05:26.131Z,52.02
2023-05-11T13:07:59.051Z,52.30
2023-05-11T13:10:28.671Z,52.30
2023-05-11T13:12:56.192Z,50.99
2023-05-11T13:15:24.536Z,50.83
2023-05-11T13:17:59.266Z,50.73
2023-05-11T13:20:32.398Z,51.21
2023-05-11T13:23:08.016Z,51.26
2023-05-11T13:25:51.851Z,50.98
2023-05-11T13:28:20.091Z,50.94
2023-05-11T13:30:47.194Z,50.87
2023-05-11T13:33:13.910Z,51.24
2023-05-11T13:35:41.751Z,50.20
2023-05-11T13:38:12.374Z,50.05
2023-05-11T13:40:39.551Z,50.42
2023-05-11T13:43:06.567Z,50.08
2023-05-11T13:45:33.233Z,50.31
2023-05-11T13:47:59.813Z,50.15
2023-05-11T13:50:26.833Z,49.96
2023-05-11T13:52:54.055Z,50.46
2023-05-11T13:55:21.111Z,50.02
2023-05-11T13:57:48.072Z,49.70
2023-05-11T14:00:15.258Z,48.95
2023-05-11T14:02:41.968Z,48.57
2023-05-11T14:05:09.216Z,48.97
2023-05-11T14:07:47.189Z,48.23
2023-05-11T14:10:16.315Z,47.53
2023-05-11T14:12:43.328Z,47.31
2023-05-11T14:15:10.646Z,46.36
2023-05-11T14:17:37.515Z,45.95
2023-05-11T14:20:06.119Z,45.95
2023-05-11T14:22:32.692Z,46.39
2023-05-11T14:24:59.289Z,46.66
2023-05-11T14:27:25.874Z,47.15
2023-05-11T14:29:52.467Z,47.19
2023-05-11T14:32:19.520Z,47.36
2023-05-11T14:34:46.939Z,47.50
2023-05-11T14:37:13.817Z,47.43
2023-05-11T14:39:41.441Z,47.57
2023-05-11T14:42:08.838Z,47.61
2023-05-11T14:44:35.568Z,47.30
2023-05-11T14:47:02.220Z,46.34
2023-05-11T14:49:28.889Z,46.49
2023-05-11T14:51:56.649Z,46.42
2023-05-11T14:54:23.385Z,45.01
2023-05-11T14:56:54.056Z,43.61
2023-05-11T14:59:22.213Z,42.82
2023-05-11T15:01:49.504Z,40.99
2023-05-11T15:04:16.917Z,38.80
2023-05-11T15:06:44.093Z,39.03
2023-05-11T15:09:10.855Z,40.20
2023-05-11T15:11:37.567Z,41.30
2023-05-11T15:14:06.013Z,41.21
2023-05-11T15:16:32.953Z,41.02
2023-05-11T15:19:00.123Z,40.40
2023-05-11T15:21:27.390Z,38.53
2023-05-11T15:23:54.344Z,37.12
2023-05-11T15:26:22.160Z,36.93
2023-05-11T15:28:48.772Z,40.11
2023-05-11T15:31:15.520Z,42.09
2023-05-11T15:33:42.578Z,43.66
2023-05-11T15:36:13.972Z,45.56
2023-05-11T15:38:41.245Z,46.92
2023-05-11T15:41:08.011Z,47.75
2023-05-11T15:43:35.272Z,49.14
2023-05-11T15:46:03.770Z,49.57
2023-05-11T15:48:30.680Z,50.35
2023-05-11T15:50:59.737Z,51.33
2023-05-11T15:53:27.008Z,52.35
2023-05-11T15:55:55.393Z,52.49
2023-05-11T15:58:22.257Z,51.90
2023-05-11T16:00:49.166Z,52.19
2023-05-11T16:03:16.498Z,50.05
2023-05-11T16:05:43.312Z,49.50
2023-05-11T16:08:09.884Z,49.96
2023-05-11T16:10:36.443Z,50.16
2023-05-11T16:13:02.998Z,51.17
2023-05-11T16:15:31.254Z,50.80
2023-05-11T16:17:58.510Z,50.10
2023-05-11T16:20:25.331Z,50.91
2023-05-11T16:22:51.933Z,50.46
2023-05-11T16:25:18.668Z,49.53
2023-05-11T16:27:45.193Z,50.05
2023-05-11T16:30:23.240Z,50.25
2023-05-11T16:32:51.610Z,49.91
2023-05-11T16:35:18.509Z,49.62
2023-05-11T16:37:45.081Z,50.34
2023-05-11T16:40:11.834Z,50.53
2023-05-11T16:42:38.414Z,50.71
2023-05-11T16:45:05.484Z,51.59
2023-05-11T16:47:32.092Z,51.33
2023-05-11T16:49:58.677Z,50.07
2023-05-11T16:52:25.416Z,49.77
2023-05-11T16:54:52.864Z,49.36
2023-05-11T16:57:19.390Z,50.64
2023-05-11T16:59:45.982Z,50.45
2023-05-11T17:02:12.683Z,50.50
2023-05-11T17:04:39.214Z,50.22
2023-05-11T17:07:08.604Z,51.43
2023-05-11T17:09:35.149Z,50.55
2023-05-11T17:12:07.024Z,51.04
2023-05-11T17:14:33.589Z,51.57
2023-05-11T17:17:00.112Z,51.68
2023-05-11T17:19:26.658Z,52.50
2023-05-11T17:21:53.237Z,52.15
2023-05-11T17:24:19.838Z,52.42
2023-05-11T17:26:48.432Z,51.60
2023-05-11T17:29:16.476Z,51.78
2023-05-11T17:31:43.333Z,51.18
2023-05-11T17:34:10.673Z,51.21
2023-05-11T17:36:37.422Z,51.44
2023-05-11T17:39:05.084Z,51.67
2023-05-11T17:41:32.012Z,50.71
2023-05-11T17:43:58.549Z,51.55
2023-05-11T17:46:25.565Z,51.79
2023-05-11T17:48:53.027Z,51.64
2023-05-11T17:51:20.576Z,51.87
2023-05-11T17:53:47.376Z,51.48
2023-05-11T17:56:13.991Z,51.17
2023-05-11T17:58:40.607Z,52.00
2023-05-11T18:01:12.610Z,51.06
2023-05-11T18:03:39.564Z,52.05
2023-05-11T18:06:06.961Z,51.32
2023-05-11T18:08:33.616Z,51.28
2023-05-11T18:11:00.163Z,52.34
2023-05-11T18:13:28.676Z,52.20
2023-05-11T18:16:00.847Z,52.21
2023-05-11T18:18:27.486Z,51.80
2023-05-11T18:20:54.199Z,52.37
2023-05-11T18:23:20.706Z,52.94
2023-05-11T18:25:47.244Z,52.75
2023-05-11T18:28:13.788Z,52.86
2023-05-11T18:30:40.425Z,52.79
2023-05-11T18:33:07.105Z,53.88
2023-05-11T18:35:33.829Z,54.42
2023-05-11T18:38:02.286Z,54.33
2023-05-11T18:40:28.815Z,54.20
2023-05-11T18:42:56.217Z,54.72
2023-05-11T18:45:22.988Z,55.04
2023-05-11T18:47:50.314Z,54.58
2023-05-11T18:50:17.081Z,55.54
2023-05-11T18:52:43.836Z,56.36
2023-05-11T18:55:10.379Z,56.75
2023-05-11T18:57:39.414Z,57.22
2023-05-11T19:00:07.347Z,57.35
2023-05-11T19:02:34.076Z,57.19
2023-05-11T19:05:01.295Z,58.32
2023-05-11T19:07:28.562Z,58.61
2023-05-11T19:09:55.531Z,59.00
2023-05-11T19:12:22.479Z,58.94
2023-05-11T19:14:49.065Z,59.53
2023-05-11T19:17:15.641Z,59.98
2023-05-11T19:19:42.194Z,60.46
2023-05-11T19:22:09.305Z,60.93
2023-05-11T19:24:36.176Z,60.93
2023-05-11T19:27:07.801Z,60.98
2023-05-11T19:29:35.484Z,61.22
2023-05-11T19:32:02.537Z,61.81
2023-05-11T19:34:29.158Z,62.61
2023-05-11T19:36:55.718Z,62.45
2023-05-11T19:39:22.344Z,62.43
2023-05-11T19:41:48.958Z,62.86
2023-05-11T19:44:15.448Z,62.90
2023-05-11T19:46:46.541Z,62.84
2023-05-11T19:49:15.069Z,63.87
2023-05-11T19:51:41.927Z,63.41
2023-05-11T19:54:08.525Z,63.69
2023-05-11T19:56:35.133Z,64.34
2023-05-11T19:59:02.712Z,64.02
2023-05-11T20:01:29.297Z,64.60
2023-05-11T20:03:56.301Z,64.83
2023-05-11T20:06:23.341Z,64.73
2023-05-11T20:08:51.574Z,65.09
2023-05-11T20:11:18.348Z,65.53
2023-05-11T20:13:45.266Z,65.71
2023-05-11T20:16:11.841Z,65.83
2023-05-11T20:18:38.560Z,66.23
2023-05-11T20:21:05.408Z,66.25
2023-05-11T20:23:31.993Z,66.32
2023-05-11T20:25:58.536Z,66.75
2023-05-11T20:28:27.377Z,67.01
2023-05-11T20:30:56.256Z,67.15
2023-05-11T20:35:53.484Z,67.60
2023-05-11T20:38:20.487Z,67.62
2023-05-11T20:40:47.072Z,67.84
2023-05-11T20:43:14.771Z,67.66
2023-05-11T20:45:42.323Z,67.65
2023-05-11T20:48:09.108Z,68.43
2023-05-11T20:50:35.758Z,68.00
2023-05-11T20:53:02.399Z,67.94
2023-05-11T20:55:29.022Z,68.30
2023-05-11T20:57:55.602Z,68.31
2023-05-11T21:00:22.846Z,68.18
2023-05-11T21:02:49.797Z,68.49
2023-05-11T21:05:16.660Z,68.41
2023-05-11T21:07:43.296Z,68.73
2023-05-11T21:10:12.563Z,68.90
2023-05-11T21:12:39.258Z,68.97
2023-05-11T21:15:07.356Z,69.00
2023-05-11T21:17:34.467Z,69.36
2023-05-11T21:20:05.015Z,69.36
2023-05-11T21:22:36.463Z,69.48
2023-05-11T21:25:04.133Z,69.36
2023-05-11T21:27:31.399Z,69.60
2023-05-11T21:29:57.988Z,69.96
2023-05-11T21:32:24.616Z,69.91
2023-05-11T21:34:51.198Z,70.33
2023-05-11T21:37:20.273Z,70.46
2023-05-11T21:39:50.400Z,70.49
2023-05-11T21:42:17.225Z,69.67
2023-05-11T21:44:43.804Z,69.79
2023-05-11T21:47:10.679Z,69.64
2023-05-11T21:49:37.224Z,69.81
2023-05-11T21:52:04.071Z,69.82
2023-05-11T21:54:30.680Z,70.28
2023-05-11T21:56:57.213Z,69.80
2023-05-11T21:59:26.738Z,69.79
2023-05-11T22:01:54.870Z,70.29
2023-05-11T22:04:21.705Z,70.51
2023-05-11T22:06:48.230Z,71.07
2023-05-11T22:09:15.157Z,71.48
2023-05-11T22:11:41.697Z,71.65
2023-05-11T22:14:08.305Z,72.49
2023-05-11T22:16:34.844Z,72.92
2023-05-11T22:19:01.561Z,73.12
2023-05-11T22:21:28.339Z,73.71
2023-05-11T22:23:55.316Z,73.94
2023-05-11T22:26:21.900Z,74.20
2023-05-11T22:28:48.446Z,75.44
2023-05-11T22:31:15.018Z,75.75
2023-05-11T22:33:41.797Z,76.38
2023-05-11T22:36:08.487Z,76.80
2023-05-11T22:38:37.548Z,76.62
2023-05-11T22:41:05.016Z,77.20
2023-05-11T22:43:31.913Z,77.58
2023-05-11T22:45:58.608Z,77.83
2023-05-11T22:48:25.183Z,78.14
2023-05-11T22:50:51.758Z,78.13
2023-05-11T22:53:19.958Z,78.78
2023-05-11T22:55:46.650Z,78.88
2023-05-11T22:58:13.384Z,79.14
2023-05-11T23:00:40.166Z,79.43
2023-05-11T23:03:06.892Z,79.82
2023-05-11T23:05:33.742Z,80.73
2023-05-11T23:08:00.505Z,80.60
2023-05-11T23:10:28.637Z,80.82
2023-05-11T23:12:55.938Z,81.30
2023-05-11T23:15:22.613Z,81.38
2023-05-11T23:17:49.310Z,81.96
2023-05-11T23:20:16.872Z,81.33
2023-05-11T23:22:43.607Z,81.82
2023-05-11T23:25:10.535Z,81.82
2023-05-11T23:27:37.126Z,81.75
2023-05-11T23:30:04.014Z,82.13
2023-05-11T23:32:30.564Z,81.72
2023-05-11T23:34:57.098Z,81.46
2023-05-11T23:37:23.865Z,81.60
2023-05-11T23:39:50.598Z,81.58
2023-05-11T23:42:17.212Z,81.85
2023-05-11T23:44:44.157Z,81.70
2023-05-11T23:47:10.782Z,81.60
2023-05-11T23:49:37.371Z,82.34
2023-05-11T23:52:04.261Z,82.39
2023-05-11T23:54:30.754Z,82.03
2023-05-11T23:56:57.290Z,82.35
2023-05-11T23:59:23.897Z,82.50
